Time;durP1;ratioP1;P1;durP2;ratioP2;P2;SDS_P1;SDS_P2;PMS_P1;PMS_P2;Temp;Humidity;BMP_temperature;BMP_pressure;BME280_temperature;BME280_humidity;BME280_pressure;Samples;Min_cycle;Max_cycle;Signal;HPM_P1;HPM_P2
2022/06/21 00:00:35;;;;;;;;;;;;;;;;;;6219269;23;19907;-82
2022/06/21 00:03:03;;;;;;;;;;;;;;;;;;6245560;23;19914;-82
2022/06/21 00:05:35;;;;;;;;;;;;;;;;;;6245845;23;19915;-84
2022/06/21 00:08:02;;;;;;;;;;;;;;;;;;6245675;23;19990;-82
2022/06/21 00:10:27;;;;;;;;;;;;;;;;;;6246016;23;19911;-81
2022/06/21 00:12:52;;;;;;;;;;;;;;;;;;6245358;23;19907;-82
2022/06/21 00:15:18;;;;;;;;;;;;;;;;;;6245528;23;20022;-82
2022/06/21 00:17:44;;;;;;;;;;;;;;;;;;6254133;22;19923;-81
2022/06/21 00:20:12;;;;;;;;;;;;;;;;;;6222214;23;19918;-82
2022/06/21 00:22:38;;;;;;;;;;;;;;;;;;6219431;23;19903;-82
2022/06/21 00:25:05;;;;;;;;;;;;;;;;;;6219083;23;20376;-82
2022/06/21 00:27:30;;;;;;;;;;;;;;;;;;6245406;23;19907;-82
2022/06/21 00:29:56;;;;;;;;;;;;;;;;;;6245073;23;20341;-82
2022/06/21 00:32:21;;;;;;;;;;;;;;;;;;6245624;23;19957;-82
2022/06/21 00:34:46;;;;;;;;;;;;;;;;;;6245184;23;19907;-82
2022/06/21 00:37:13;;;;;;;;;;;;;;;;;;6245845;23;20220;-81
2022/06/21 00:39:38;;;;;;;;;;;;;;;;;;6232759;23;20216;-80
2022/06/21 00:42:12;;;;;;;;;;;;;;;;;;6247168;23;20543;-82
2022/06/21 00:44:56;;;;;;;;;;;;;;;;;;6193234;23;20383;-83
2022/06/21 00:47:26;;;;;;;;;;;;;;;;;;6245141;23;19907;-83
2022/06/21 00:49:53;;;;;;;;;;;;;;;;;;6218966;23;20041;-83
2022/06/21 00:52:27;;;;;;;;;;;;;;;;;;6245058;23;19982;-83
2022/06/21 00:54:52;;;;;;;;;;;;;;;;;;6245431;23;19978;-83
2022/06/21 00:57:18;;;;;;;;;;;;;;;;;;6244903;23;20220;-83
2022/06/21 00:59:44;;;;;;;;;;;;;;;;;;6233904;23;19912;-83
2022/06/21 01:02:29;;;;;;;;;;;;;;;;;;6246543;23;19908;-83
2022/06/21 01:04:54;;;;;;;;;;;;;;;;;;6194138;23;19911;-83
2022/06/21 01:07:20;;;;;;;;;;;;;;;;;;6218001;23;19966;-83
2022/06/21 01:09:49;;;;;;;;;;;;;;;;;;6244814;23;19907;-82
2022/06/21 01:12:26;;;;;;;;;;;;;;;;;;6245198;23;20303;-83
2022/06/21 01:14:56;;;;;;;;;;;;;;;;;;6218344;23;19914;-82
2022/06/21 01:17:21;;;;;;;;;;;;;;;;;;6217897;23;19911;-82
2022/06/21 01:19:51;;;;;;;;;;;;;;;;;;6253487;23;19926;-83
2022/06/21 01:22:19;;;;;;;;;;;;;;;;;;6252588;23;19907;-83
2022/06/21 01:24:57;;;;;;;;;;;;;;;;;;6246271;23;19907;-83
2022/06/21 01:27:23;;;;;;;;;;;;;;;;;;6192301;23;19908;-83
2022/06/21 01:29:48;;;;;;;;;;;;;;;;;;6218377;23;19914;-83
2022/06/21 01:32:13;;;;;;;;;;;;;;;;;;6217999;23;19930;-82
2022/06/21 01:34:39;;;;;;;;;;;;;;;;;;6193160;23;19908;-82
2022/06/21 01:37:08;;;;;;;;;;;;;;;;;;6244936;23;20335;-82
2022/06/21 01:39:54;;;;;;;;;;;;;;;;;;6223417;23;19892;-83
2022/06/21 01:42:20;;;;;;;;;;;;;;;;;;6253809;23;19912;-83
2022/06/21 01:44:48;;;;;;;;;;;;;;;;;;6247916;23;19935;-83
2022/06/21 01:47:14;;;;;;;;;;;;;;;;;;6247470;23;19907;-83
2022/06/21 01:49:42;;;;;;;;;;;;;;;;;;6247857;23;19949;-83
2022/06/21 01:52:11;;;;;;;;;;;;;;;;;;6219880;23;19903;-83
2022/06/21 01:54:39;;;;;;;;;;;;;;;;;;6220196;23;19914;-83
2022/06/21 01:57:05;;;;;;;;;;;;;;;;;;6246149;23;19908;-83
2022/06/21 01:59:34;;;;;;;;;;;;;;;;;;6237110;23;19895;-83
2022/06/21 02:02:01;;;;;;;;;;;;;;;;;;6220613;23;20250;-83
2022/06/21 02:04:28;;;;;;;;;;;;;;;;;;6222713;23;19982;-82
2022/06/21 02:06:53;;;;;;;;;;;;;;;;;;6221107;23;19907;-83
2022/06/21 02:09:30;;;;;;;;;;;;;;;;;;6220207;23;19911;-83
2022/06/21 02:11:55;;;;;;;;;;;;;;;;;;6219732;23;20303;-83
2022/06/21 02:14:29;;;;;;;;;;;;;;;;;;6246758;23;19915;-83
2022/06/21 02:16:59;;;;;;;;;;;;;;;;;;6246520;23;19919;-83
2022/06/21 02:19:50;;;;;;;;;;;;;;;;;;6230980;22;19918;-82
2022/06/21 02:22:23;;;;;;;;;;;;;;;;;;6214700;23;19912;-83
2022/06/21 02:24:48;;;;;;;;;;;;;;;;;;6249677;23;19970;-83
2022/06/21 02:27:14;;;;;;;;;;;;;;;;;;6219319;23;19908;-83
2022/06/21 02:29:40;;;;;;;;;;;;;;;;;;6219896;23;19907;-83
2022/06/21 02:32:06;;;;;;;;;;;;;;;;;;6219769;23;19915;-83
2022/06/21 02:34:32;;;;;;;;;;;;;;;;;;6219669;23;20315;-83
2022/06/21 02:36:58;;;;;;;;;;;;;;;;;;6194309;23;19915;-83
2022/06/21 02:39:24;;;;;;;;;;;;;;;;;;6222260;23;19908;-83
2022/06/21 02:41:51;;;;;;;;;;;;;;;;;;6256578;22;19911;-83
2022/06/21 02:44:19;;;;;;;;;;;;;;;;;;6219917;23;19927;-84
2022/06/21 02:46:49;;;;;;;;;;;;;;;;;;6250303;23;19907;-83
2022/06/21 02:49:20;;;;;;;;;;;;;;;;;;6246706;23;19908;-83
2022/06/21 02:51:59;;;;;;;;;;;;;;;;;;6194176;23;19914;-82
2022/06/21 02:54:42;;;;;;;;;;;;;;;;;;6219364;23;19931;-82
2022/06/21 02:57:07;;;;;;;;;;;;;;;;;;6219562;23;20317;-83
2022/06/21 02:59:33;;;;;;;;;;;;;;;;;;6219579;23;19930;-83
2022/06/21 03:02:04;;;;;;;;;;;;;;;;;;6258458;23;20331;-83
2022/06/21 03:04:35;;;;;;;;;;;;;;;;;;6195743;23;19915;-82
2022/06/21 03:07:01;;;;;;;;;;;;;;;;;;6259348;23;19915;-82
2022/06/21 03:09:27;;;;;;;;;;;;;;;;;;6245517;23;19982;-83
2022/06/21 03:11:54;;;;;;;;;;;;;;;;;;6219503;23;19910;-82
2022/06/21 03:14:20;;;;;;;;;;;;;;;;;;6247030;23;19986;-82
2022/06/21 03:16:46;;;;;;;;;;;;;;;;;;6218874;23;19903;-83
2022/06/21 03:19:20;;;;;;;;;;;;;;;;;;6245773;23;19911;-83
2022/06/21 03:21:47;;;;;;;;;;;;;;;;;;6230272;22;19918;-83
2022/06/21 03:24:15;;;;;;;;;;;;;;;;;;6224666;23;19935;-82
2022/06/21 03:26:40;;;;;;;;;;;;;;;;;;6219538;23;20031;-83
2022/06/21 03:29:06;;;;;;;;;;;;;;;;;;6246083;23;19919;-82
2022/06/21 03:31:38;;;;;;;;;;;;;;;;;;6245897;23;19907;-82
2022/06/21 03:34:05;;;;;;;;;;;;;;;;;;6246022;23;19907;-83
2022/06/21 03:36:30;;;;;;;;;;;;;;;;;;6245901;23;19907;-83
2022/06/21 03:39:04;;;;;;;;;;;;;;;;;;6240413;23;19918;-82
2022/06/21 03:41:45;;;;;;;;;;;;;;;;;;6266050;23;19908;-82
2022/06/21 03:44:16;;;;;;;;;;;;;;;;;;6247841;23;19919;-82
2022/06/21 03:46:46;;;;;;;;;;;;;;;;;;6269872;23;19891;-83
2022/06/21 03:49:17;;;;;;;;;;;;;;;;;;6221818;23;19956;-83
2022/06/21 03:51:42;;;;;;;;;;;;;;;;;;6219174;23;19903;-82
2022/06/21 03:54:16;;;;;;;;;;;;;;;;;;6218552;23;19965;-82
2022/06/21 03:56:44;;;;;;;;;;;;;;;;;;6245945;23;19904;-82
2022/06/21 03:59:16;;;;;;;;;;;;;;;;;;6219174;23;19914;-83
2022/06/21 04:01:51;;;;;;;;;;;;;;;;;;6245443;23;19936;-83
2022/06/21 04:04:21;;;;;;;;;;;;;;;;;;6266153;23;19908;-83
2022/06/21 04:06:52;;;;;;;;;;;;;;;;;;6219734;23;19908;-83
2022/06/21 04:09:24;;;;;;;;;;;;;;;;;;6220105;23;19961;-84
2022/06/21 04:11:55;;;;;;;;;;;;;;;;;;6245659;23;19907;-82
2022/06/21 04:14:27;;;;;;;;;;;;;;;;;;6218929;23;19970;-79
2022/06/21 04:16:59;;;;;;;;;;;;;;;;;;6245594;23;19931;-78
2022/06/21 04:19:35;;;;;;;;;;;;;;;;;;6193718;23;19941;-78
2022/06/21 04:22:07;;;;;;;;;;;;;;;;;;6218048;23;19908;-78
2022/06/21 04:24:52;;;;;;;;;;;;;;;;;;6227344;23;19919;-78
2022/06/21 04:27:19;;;;;;;;;;;;;;;;;;6218389;23;19907;-79
2022/06/21 04:29:47;;;;;;;;;;;;;;;;;;6218261;23;19907;-77
2022/06/21 04:32:18;;;;;;;;;;;;;;;;;;6219245;23;19998;-77
2022/06/21 04:34:57;;;;;;;;;;;;;;;;;;6244914;23;19907;-77
2022/06/21 04:37:42;;;;;;;;;;;;;;;;;;6244980;23;20316;-77
2022/06/21 04:40:10;;;;;;;;;;;;;;;;;;6218576;23;19907;-77
2022/06/21 04:42:40;;;;;;;;;;;;;;;;;;6245696;23;19908;-78
2022/06/21 04:45:27;;;;;;;;;;;;;;;;;;6218451;23;19907;-77
2022/06/21 04:47:59;;;;;;;;;;;;;;;;;;6201616;23;20313;-77
2022/06/21 04:50:25;;;;;;;;;;;;;;;;;;6218256;23;19965;-79
2022/06/21 04:52:56;;;;;;;;;;;;;;;;;;6239478;23;19911;-78
2022/06/21 04:55:22;;;;;;;;;;;;;;;;;;6242433;23;20389;-79
2022/06/21 04:57:59;;;;;;;;;;;;;;;;;;6206759;23;19904;-79
2022/06/21 05:00:24;;;;;;;;;;;;;;;;;;6221264;23;20269;-80
2022/06/21 05:02:56;;;;;;;;;;;;;;;;;;6243647;23;19914;-78
2022/06/21 05:05:22;;;;;;;;;;;;;;;;;;6250011;23;20341;-78
2022/06/21 05:07:49;;;;;;;;;;;;;;;;;;6199045;23;19935;-80
2022/06/21 05:10:19;;;;;;;;;;;;;;;;;;6194820;23;20295;-83
2022/06/21 05:12:45;;;;;;;;;;;;;;;;;;6216006;23;19907;-77
2022/06/21 05:15:17;;;;;;;;;;;;;;;;;;6214401;23;19916;-78
2022/06/21 05:17:43;;;;;;;;;;;;;;;;;;6221015;23;19922;-79
2022/06/21 05:20:19;;;;;;;;;;;;;;;;;;6221314;23;20100;-77
2022/06/21 05:22:46;;;;;;;;;;;;;;;;;;6244339;23;19904;-78
2022/06/21 05:25:17;;;;;;;;;;;;;;;;;;6221117;23;19914;-76
2022/06/21 05:27:51;;;;;;;;;;;;;;;;;;6247389;23;19907;-80
2022/06/21 05:30:21;;;;;;;;;;;;;;;;;;6218392;23;19908;-78
2022/06/21 05:32:57;;;;;;;;;;;;;;;;;;6219557;23;20350;-79
2022/06/21 05:35:23;;;;;;;;;;;;;;;;;;6244725;23;19907;-78
2022/06/21 05:38:15;;;;;;;;;;;;;;;;;;6218480;23;19982;-79
2022/06/21 05:40:48;;;;;;;;;;;;;;;;;;6241195;23;19979;-78
2022/06/21 05:43:17;;;;;;;;;;;;;;;;;;6219442;23;20416;-78
2022/06/21 05:45:43;;;;;;;;;;;;;;;;;;6201209;23;19898;-78
2022/06/21 05:48:11;;;;;;;;;;;;;;;;;;6224817;23;19911;-80
2022/06/21 05:50:37;;;;;;;;;;;;;;;;;;6219993;23;19911;-82
2022/06/21 05:53:21;;;;;;;;;;;;;;;;;;6247254;23;20315;-78
2022/06/21 05:55:46;;;;;;;;;;;;;;;;;;6247617;23;19954;-79
2022/06/21 05:58:25;;;;;;;;;;;;;;;;;;6246504;23;19948;-78
2022/06/21 06:00:59;;;;;;;;;;;;;;;;;;6218610;23;19908;-79
2022/06/21 06:03:24;;;;;;;;;;;;;;;;;;6217906;23;19915;-78
2022/06/21 06:05:49;;;;;;;;;;;;;;;;;;6222443;23;19911;-78
2022/06/21 06:08:17;;;;;;;;;;;;;;;;;;6218601;23;19907;-78
2022/06/21 06:10:43;;;;;;;;;;;;;;;;;;6243786;23;19931;-78
2022/06/21 06:13:12;;;;;;;;;;;;;;;;;;6243346;23;19918;-78
2022/06/21 06:16:07;;;;;;;;;;;;;;;;;;6217020;23;19908;-78
2022/06/21 06:18:35;;;;;;;;;;;;;;;;;;6221586;23;19911;-78
2022/06/21 06:21:01;;;;;;;;;;;;;;;;;;6241875;23;20247;-78
2022/06/21 06:23:32;;;;;;;;;;;;;;;;;;6216525;23;19911;-78
2022/06/21 06:26:04;;;;;;;;;;;;;;;;;;6249353;23;19933;-78
2022/06/21 06:28:40;;;;;;;;;;;;;;;;;;6246838;23;20003;-78
2022/06/21 06:31:09;;;;;;;;;;;;;;;;;;6219196;23;19938;-79
2022/06/21 06:33:39;;;;;;;;;;;;;;;;;;6246646;23;20295;-77
2022/06/21 06:36:07;;;;;;;;;;;;;;;;;;6246185;23;19982;-78
2022/06/21 06:38:32;;;;;;;;;;;;;;;;;;6245418;23;19938;-77
2022/06/21 06:41:03;;;;;;;;;;;;;;;;;;6247378;23;19908;-81
2022/06/21 06:43:37;;;;;;;;;;;;;;;;;;6246648;23;20266;-79
2022/06/21 06:46:02;;;;;;;;;;;;;;;;;;6222271;23;19949;-77
2022/06/21 06:48:32;;;;;;;;;;;;;;;;;;6224134;23;19981;-77
2022/06/21 06:51:05;;;;;;;;;;;;;;;;;;6246899;23;19965;-78
2022/06/21 06:53:44;;;;;;;;;;;;;;;;;;6219534;23;19978;-78
2022/06/21 06:56:11;;;;;;;;;;;;;;;;;;6217843;23;20284;-78
2022/06/21 06:58:40;;;;;;;;;;;;;;;;;;6217311;23;19907;-78
2022/06/21 07:01:05;;;;;;;;;;;;;;;;;;6243937;23;19943;-75
2022/06/21 07:03:31;;;;;;;;;;;;;;;;;;6242774;23;19907;-76
2022/06/21 07:06:02;;;;;;;;;;;;;;;;;;6218180;23;19976;-75
2022/06/21 07:08:46;;;;;;;;;;;;;;;;;;6224548;23;19911;-78
2022/06/21 07:11:16;;;;;;;;;;;;;;;;;;6241698;23;19964;-77
2022/06/21 07:13:42;;;;;;;;;;;;;;;;;;6215675;23;19929;-76
2022/06/21 07:16:09;;;;;;;;;;;;;;;;;;6241909;23;20311;-77
2022/06/21 07:18:36;;;;;;;;;;;;;;;;;;6216101;23;20339;-76
2022/06/21 07:21:01;;;;;;;;;;;;;;;;;;6214005;23;19986;-79
2022/06/21 07:23:27;;;;;;;;;;;;;;;;;;6240975;23;19907;-77
2022/06/21 07:25:56;;;;;;;;;;;;;;;;;;6214632;23;19915;-78
2022/06/21 07:28:32;;;;;;;;;;;;;;;;;;6250527;23;19908;-77
2022/06/21 07:30:58;;;;;;;;;;;;;;;;;;6214934;23;20140;-77
2022/06/21 07:33:25;;;;;;;;;;;;;;;;;;6214204;23;20243;-78
2022/06/21 07:35:53;;;;;;;;;;;;;;;;;;6217178;23;19914;-77
2022/06/21 07:38:34;;;;;;;;;;;;;;;;;;6240278;23;19911;-76
2022/06/21 07:41:09;;;;;;;;;;;;;;;;;;6239988;23;19907;-74
2022/06/21 07:43:55;;;;;;;;;;;;;;;;;;6208755;23;19912;-77
2022/06/21 07:46:25;;;;;;;;;;;;;;;;;;6241665;23;19990;-78
2022/06/21 07:48:55;;;;;;;;;;;;;;;;;;6217677;23;19908;-77
2022/06/21 07:51:25;;;;;;;;;;;;;;;;;;6213506;23;19907;-77
2022/06/21 07:54:07;;;;;;;;;;;;;;;;;;6240942;23;19907;-78
2022/06/21 07:56:42;;;;;;;;;;;;;;;;;;6215237;23;19907;-77
2022/06/21 07:59:10;;;;;;;;;;;;;;;;;;6238165;23;19942;-77
2022/06/21 08:07:12;;;;;;;;;;;;;;;;;;6239378;23;20466;-78
2022/06/21 08:09:40;;;;;;;;;;;;;;;;;;6220541;23;19907;-76
2022/06/21 08:12:11;;;;;;;;;;;;;;;;;;6215048;23;19907;-76
2022/06/21 08:14:40;;;;;;;;;;;;;;;;;;6240157;23;19957;-76
2022/06/21 08:17:10;;;;;;;;;;;;;;;;;;6241138;23;19934;-77
2022/06/21 08:19:38;;;;;;;;;;;;;;;;;;6213428;23;20362;-78
2022/06/21 08:22:08;;;;;;;;;;;;;;;;;;6242104;23;19986;-75
2022/06/21 08:24:39;;;;;;;;;;;;;;;;;;6216402;23;20439;-76
2022/06/21 08:27:14;;;;;;;;;;;;;;;;;;6216317;23;20317;-78
2022/06/21 08:29:44;;;;;;;;;;;;;;;;;;6224338;23;20303;-80
2022/06/21 08:32:12;;;;;;;;;;;;;;;;;;6242856;23;20246;-78
2022/06/21 08:34:42;;;;;;;;;;;;;;;;;;6214742;23;19907;-78
2022/06/21 08:37:35;;;;;;;;;;;;;;;;;;6241920;23;19931;-79
2022/06/21 08:40:07;;;;;;;;;;;;;;;;;;6238712;23;20365;-77
2022/06/21 08:42:35;;;;;;;;;;;;;;;;;;6213119;23;20327;-77
2022/06/21 08:48:05;;;;;;;;;;;;;;;;;;6221100;23;19914;-78
2022/06/21 08:50:46;;;;;;;;;;;;;;;;;;6250594;23;19911;-79
2022/06/21 08:53:31;;;;;;;;;;;;;;;;;;6217031;23;19903;-77
2022/06/21 08:56:34;;;;;;;;;;;;;;;;;;6243832;23;19907;-78
2022/06/21 08:59:18;;;;;;;;;;;;;;;;;;6152073;23;19904;-78
2022/06/21 09:02:02;;;;;;;;;;;;;;;;;;6150765;23;19913;-79
2022/06/21 09:04:46;;;;;;;;;;;;;;;;;;6189968;23;19907;-80
2022/06/21 09:07:21;;;;;;;;;;;;;;;;;;6243571;23;20398;-80
2022/06/21 09:10:06;;;;;;;;;;;;;;;;;;6223710;23;19909;-78
2022/06/21 09:12:34;;;;;;;;;;;;;;;;;;6245870;23;20236;-77
2022/06/21 09:15:11;;;;;;;;;;;;;;;;;;6243344;23;19907;-80
2022/06/21 09:17:58;;;;;;;;;;;;;;;;;;6242893;23;19916;-80
2022/06/21 09:20:36;;;;;;;;;;;;;;;;;;6213533;23;19981;-78
2022/06/21 09:23:06;;;;;;;;;;;;;;;;;;6238893;23;20202;-77
2022/06/21 09:25:34;;;;;;;;;;;;;;;;;;6212159;23;19908;-78
2022/06/21 09:28:05;;;;;;;;;;;;;;;;;;6238785;23;19908;-78
2022/06/21 09:30:31;;;;;;;;;;;;;;;;;;6247058;23;19931;-78
2022/06/21 09:33:17;;;;;;;;;;;;;;;;;;6239950;23;19907;-78
2022/06/21 09:36:18;;;;;;;;;;;;;;;;;;6241366;23;19908;-79
2022/06/21 09:38:59;;;;;;;;;;;;;;;;;;6150455;23;19909;-79
2022/06/21 09:41:46;;;;;;;;;;;;;;;;;;6208071;23;19993;-77
2022/06/21 09:44:38;;;;;;;;;;;;;;;;;;6218089;23;20517;-77
2022/06/21 09:47:12;;;;;;;;;;;;;;;;;;6204119;23;20023;-79
2022/06/21 09:49:50;;;;;;;;;;;;;;;;;;6219377;23;19986;-78
2022/06/21 09:52:35;;;;;;;;;;;;;;;;;;6244786;23;19907;-77
2022/06/21 09:55:09;;;;;;;;;;;;;;;;;;6214864;23;19908;-76
2022/06/21 09:57:38;;;;;;;;;;;;;;;;;;6240138;23;19904;-77
2022/06/21 10:00:06;;;;;;;;;;;;;;;;;;6242637;23;19908;-76
2022/06/21 10:02:38;;;;;;;;;;;;;;;;;;6217278;23;19971;-77
2022/06/21 10:05:39;;;;;;;;;;;;;;;;;;6244579;23;19907;-78
2022/06/21 10:08:26;;;;;;;;;;;;;;;;;;6150175;23;20244;-76
2022/06/21 10:11:32;;;;;;;;;;;;;;;;;;6184223;23;20390;-77
2022/06/21 10:14:01;;;;;;;;;;;;;;;;;;6243105;23;19911;-78
2022/06/21 10:16:26;;;;;;;;;;;;;;;;;;6243412;23;19911;-78
2022/06/21 10:19:10;;;;;;;;;;;;;;;;;;6244310;23;19912;-78
2022/06/21 10:21:35;;;;;;;;;;;;;;;;;;6244468;23;19907;-86
2022/06/21 10:24:07;;;;;;;;;;;;;;;;;;6245132;23;19950;-86
2022/06/21 10:26:52;;;;;;;;;;;;;;;;;;6245340;23;19907;-87
2022/06/21 10:29:28;;;;;;;;;;;;;;;;;;6246286;23;19907;-86
2022/06/21 10:31:54;;;;;;;;;;;;;;;;;;6262147;22;20008;-86
2022/06/21 10:34:22;;;;;;;;;;;;;;;;;;6247570;23;20516;-85
2022/06/21 10:37:04;;;;;;;;;;;;;;;;;;6248248;23;20305;-86
2022/06/21 10:39:39;;;;;;;;;;;;;;;;;;6220781;23;19978;-84
2022/06/21 10:45:22;;;;;;;;;;;;;;;;;;6231055;23;19930;-85
2022/06/21 10:48:06;;;;;;;;;;;;;;;;;;6254869;23;19907;-85
2022/06/21 10:50:55;;;;;;;;;;;;;;;;;;6254297;23;19919;-86
2022/06/21 10:53:25;;;;;;;;;;;;;;;;;;6240224;23;20311;-87
2022/06/21 10:57:09;;;;;;;;;;;;;;;;;;6192088;23;20215;-86
2022/06/21 10:58:47;;;;;;;;;;;;;;;;;;6242259;23;20416;-84
2022/06/21 11:01:19;;;;;;;;;;;;;;;;;;6216375;23;19915;-85
2022/06/21 11:03:44;;;;;;;;;;;;;;;;;;6216722;23;19907;-87
2022/06/21 11:06:15;;;;;;;;;;;;;;;;;;6242776;23;19914;-88
2022/06/21 11:08:59;;;;;;;;;;;;;;;;;;6242451;23;20315;-86
2022/06/21 11:11:27;;;;;;;;;;;;;;;;;;6253977;23;19907;-87
2022/06/21 11:13:56;;;;;;;;;;;;;;;;;;6225026;23;20001;-90
2022/06/21 11:16:40;;;;;;;;;;;;;;;;;;6246742;23;19957;-87
2022/06/21 11:19:18;;;;;;;;;;;;;;;;;;6246736;23;19911;-86
2022/06/21 11:21:52;;;;;;;;;;;;;;;;;;6246358;23;20227;-85
2022/06/21 11:24:33;;;;;;;;;;;;;;;;;;6218617;23;19907;-85
2022/06/21 11:26:59;;;;;;;;;;;;;;;;;;6245938;23;19943;-88
2022/06/21 11:29:39;;;;;;;;;;;;;;;;;;6246131;23;19915;-85
2022/06/21 11:32:07;;;;;;;;;;;;;;;;;;6263245;22;19902;-87
2022/06/21 11:34:42;;;;;;;;;;;;;;;;;;6253050;23;19907;-87
2022/06/21 11:37:11;;;;;;;;;;;;;;;;;;6246248;23;20398;-87
2022/06/21 11:39:37;;;;;;;;;;;;;;;;;;6219777;23;20224;-86
2022/06/21 11:42:17;;;;;;;;;;;;;;;;;;6219570;23;20249;-85
2022/06/21 11:44:58;;;;;;;;;;;;;;;;;;6246581;23;19967;-86
2022/06/21 11:47:24;;;;;;;;;;;;;;;;;;6219884;23;19915;-87
2022/06/21 11:49:52;;;;;;;;;;;;;;;;;;6219728;23;20227;-87
2022/06/21 11:52:21;;;;;;;;;;;;;;;;;;6254134;23;19978;-84
2022/06/21 11:54:53;;;;;;;;;;;;;;;;;;6249599;23;20293;-85
2022/06/21 11:57:21;;;;;;;;;;;;;;;;;;6193941;23;19930;-85
2022/06/21 11:59:46;;;;;;;;;;;;;;;;;;6218757;23;19907;-85
2022/06/21 12:02:23;;;;;;;;;;;;;;;;;;6246077;23;20243;-84
2022/06/21 12:04:49;;;;;;;;;;;;;;;;;;6218884;23;19938;-85
2022/06/21 12:07:16;;;;;;;;;;;;;;;;;;6245695;23;19915;-85
2022/06/21 12:09:47;;;;;;;;;;;;;;;;;;6194634;23;19949;-85
2022/06/21 12:12:15;;;;;;;;;;;;;;;;;;6251979;23;19911;-85
2022/06/21 12:14:56;;;;;;;;;;;;;;;;;;6254272;23;19908;-82
2022/06/21 12:17:22;;;;;;;;;;;;;;;;;;6218869;23;19918;-85
2022/06/21 12:19:58;;;;;;;;;;;;;;;;;;6246207;23;19908;-78
2022/06/21 12:22:23;;;;;;;;;;;;;;;;;;6244497;23;19909;-77
2022/06/21 12:24:49;;;;;;;;;;;;;;;;;;6245207;23;19978;-77
2022/06/21 12:27:14;;;;;;;;;;;;;;;;;;6217988;23;19907;-77
2022/06/21 12:29:40;;;;;;;;;;;;;;;;;;6218268;23;19986;-77
2022/06/21 12:32:07;;;;;;;;;;;;;;;;;;6246348;23;19931;-77
2022/06/21 12:34:34;;;;;;;;;;;;;;;;;;6249911;23;20231;-78
2022/06/21 12:37:00;;;;;;;;;;;;;;;;;;6218265;23;20100;-77
2022/06/21 12:39:25;;;;;;;;;;;;;;;;;;6245029;23;20368;-78
2022/06/21 12:41:54;;;;;;;;;;;;;;;;;;6244655;23;19911;-77
2022/06/21 12:44:28;;;;;;;;;;;;;;;;;;6244610;23;19908;-77
2022/06/21 12:46:53;;;;;;;;;;;;;;;;;;6244657;23;20388;-77
2022/06/21 12:49:22;;;;;;;;;;;;;;;;;;6244583;23;19957;-78
2022/06/21 12:51:57;;;;;;;;;;;;;;;;;;6244977;23;20216;-77
2022/06/21 12:54:27;;;;;;;;;;;;;;;;;;6226820;23;19915;-77
2022/06/21 12:57:04;;;;;;;;;;;;;;;;;;6192462;23;19911;-77
2022/06/21 12:59:39;;;;;;;;;;;;;;;;;;6244698;23;20303;-78
2022/06/21 13:02:07;;;;;;;;;;;;;;;;;;6244875;23;19904;-78
2022/06/21 13:04:42;;;;;;;;;;;;;;;;;;6244474;23;19907;-81
2022/06/21 13:07:19;;;;;;;;;;;;;;;;;;6244234;23;19994;-79
2022/06/21 13:10:03;;;;;;;;;;;;;;;;;;6244717;23;20319;-79
2022/06/21 13:12:35;;;;;;;;;;;;;;;;;;6245765;23;20327;-79
2022/06/21 13:15:16;;;;;;;;;;;;;;;;;;6250490;23;19982;-79
2022/06/21 13:17:47;;;;;;;;;;;;;;;;;;6244743;23;19911;-78
2022/06/21 13:20:15;;;;;;;;;;;;;;;;;;6244239;23;19962;-79
2022/06/21 13:22:41;;;;;;;;;;;;;;;;;;6244670;23;19968;-79
2022/06/21 13:25:22;;;;;;;;;;;;;;;;;;6244529;23;20354;-79
2022/06/21 13:27:50;;;;;;;;;;;;;;;;;;6244682;23;19912;-78
2022/06/21 13:30:19;;;;;;;;;;;;;;;;;;6244692;23;19908;-78
2022/06/21 13:32:52;;;;;;;;;;;;;;;;;;6217680;23;19942;-78
2022/06/21 13:35:53;;;;;;;;;;;;;;;;;;6228278;23;19914;-78
2022/06/21 13:38:22;;;;;;;;;;;;;;;;;;6153173;23;19980;-78
2022/06/21 13:44:05;;;;;;;;;;;;;;;;;;6239038;23;19911;-79
2022/06/21 13:46:33;;;;;;;;;;;;;;;;;;6219717;23;19908;-78
2022/06/21 13:49:13;;;;;;;;;;;;;;;;;;6218284;23;19908;-79
2022/06/21 13:51:38;;;;;;;;;;;;;;;;;;6222014;23;19907;-81
2022/06/21 13:54:03;;;;;;;;;;;;;;;;;;6250329;23;19908;-78
2022/06/21 13:56:29;;;;;;;;;;;;;;;;;;6246911;23;19907;-79
2022/06/21 13:58:57;;;;;;;;;;;;;;;;;;6246612;23;19908;-79
2022/06/21 14:01:31;;;;;;;;;;;;;;;;;;6220146;23;19914;-80
2022/06/21 14:04:01;;;;;;;;;;;;;;;;;;6248958;23;19914;-79
2022/06/21 14:06:38;;;;;;;;;;;;;;;;;;6246182;23;19918;-79
2022/06/21 14:09:13;;;;;;;;;;;;;;;;;;6220846;23;19927;-86
2022/06/21 14:11:41;;;;;;;;;;;;;;;;;;6246627;23;19907;-80
2022/06/21 14:14:27;;;;;;;;;;;;;;;;;;6256350;23;19907;-80
2022/06/21 14:16:58;;;;;;;;;;;;;;;;;;6219310;23;19919;-81
2022/06/21 14:19:50;;;;;;;;;;;;;;;;;;6220103;23;20263;-80
2022/06/21 14:22:18;;;;;;;;;;;;;;;;;;6210862;23;19903;-80
2022/06/21 14:24:44;;;;;;;;;;;;;;;;;;6220333;23;19991;-81
2022/06/21 14:27:14;;;;;;;;;;;;;;;;;;6246893;23;19907;-81
2022/06/21 14:29:41;;;;;;;;;;;;;;;;;;6220078;23;20407;-81
2022/06/21 14:32:19;;;;;;;;;;;;;;;;;;6219335;23;19915;-81
2022/06/21 14:35:03;;;;;;;;;;;;;;;;;;6261482;23;20289;-88
2022/06/21 14:37:34;;;;;;;;;;;;;;;;;;6221018;23;19978;-86
2022/06/21 14:40:03;;;;;;;;;;;;;;;;;;6220171;23;20341;-88
2022/06/21 14:42:34;;;;;;;;;;;;;;;;;;6220224;23;19907;-87
2022/06/21 14:45:05;;;;;;;;;;;;;;;;;;6246882;23;20231;-87
2022/06/21 14:47:34;;;;;;;;;;;;;;;;;;6246849;23;19908;-87
2022/06/21 14:50:05;;;;;;;;;;;;;;;;;;6219118;23;19914;-89
2022/06/21 14:52:42;;;;;;;;;;;;;;;;;;6246437;23;20239;-86
2022/06/21 14:55:15;;;;;;;;;;;;;;;;;;6255055;23;19930;-86
2022/06/21 14:57:40;;;;;;;;;;;;;;;;;;6251086;23;19963;-86
2022/06/21 15:00:09;;;;;;;;;;;;;;;;;;6246174;23;20334;-87
2022/06/21 15:02:38;;;;;;;;;;;;;;;;;;6246263;23;19927;-86
2022/06/21 15:05:06;;;;;;;;;;;;;;;;;;6219729;23;19908;-87
2022/06/21 15:07:31;;;;;;;;;;;;;;;;;;6246591;23;19982;-86
2022/06/21 15:09:58;;;;;;;;;;;;;;;;;;6246274;23;20314;-87
2022/06/21 15:12:25;;;;;;;;;;;;;;;;;;6246470;23;19915;-86
2022/06/21 15:14:53;;;;;;;;;;;;;;;;;;6252831;23;20306;-87
2022/06/21 15:17:19;;;;;;;;;;;;;;;;;;6256451;23;19919;-87
2022/06/21 15:19:59;;;;;;;;;;;;;;;;;;6245984;23;19911;-88
2022/06/21 15:22:43;;;;;;;;;;;;;;;;;;6219710;23;19912;-87
2022/06/21 15:25:08;;;;;;;;;;;;;;;;;;6246861;23;19931;-87
2022/06/21 15:27:34;;;;;;;;;;;;;;;;;;6248910;23;19914;-84
2022/06/21 15:29:59;;;;;;;;;;;;;;;;;;6266497;23;19895;-85
2022/06/21 15:32:29;;;;;;;;;;;;;;;;;;6209380;23;19930;-87
2022/06/21 15:34:56;;;;;;;;;;;;;;;;;;6229809;23;19908;-86
2022/06/21 15:37:32;;;;;;;;;;;;;;;;;;6230414;23;19907;-86
2022/06/21 15:40:09;;;;;;;;;;;;;;;;;;6220346;23;19907;-88
2022/06/21 15:42:47;;;;;;;;;;;;;;;;;;6246907;23;19907;-87
2022/06/21 15:45:13;;;;;;;;;;;;;;;;;;6245759;23;19935;-86
2022/06/21 15:50:40;;;;;;;;;;;;;;;;;;6245799;23;19938;-88
2022/06/21 15:53:24;;;;;;;;;;;;;;;;;;6246390;23;19907;-87
2022/06/21 15:55:59;;;;;;;;;;;;;;;;;;6250937;23;19903;-88
2022/06/21 15:58:40;;;;;;;;;;;;;;;;;;6227464;23;20003;-88
2022/06/21 16:01:08;;;;;;;;;;;;;;;;;;6245887;23;19903;-86
2022/06/21 16:03:34;;;;;;;;;;;;;;;;;;6245957;23;20290;-88
2022/06/21 16:06:08;;;;;;;;;;;;;;;;;;6219767;23;19903;-85
2022/06/21 16:08:38;;;;;;;;;;;;;;;;;;6218901;23;20307;-89
2022/06/21 16:11:14;;;;;;;;;;;;;;;;;;6219408;23;19907;-86
2022/06/21 16:13:40;;;;;;;;;;;;;;;;;;6218941;23;19959;-87
2022/06/21 16:16:06;;;;;;;;;;;;;;;;;;6220908;23;19934;-85
2022/06/21 16:18:33;;;;;;;;;;;;;;;;;;6258762;23;19982;-85
2022/06/21 16:20:58;;;;;;;;;;;;;;;;;;6219250;23;20314;-86
2022/06/21 16:23:25;;;;;;;;;;;;;;;;;;6219603;23;19935;-85
2022/06/21 16:25:52;;;;;;;;;;;;;;;;;;6246163;23;19994;-87
2022/06/21 16:28:21;;;;;;;;;;;;;;;;;;6245322;23;19908;-85
2022/06/21 16:33:42;;;;;;;;;;;;;;;;;;6223177;23;19930;-87
2022/06/21 16:36:16;;;;;;;;;;;;;;;;;;6219489;23;19907;-86
2022/06/21 16:38:44;;;;;;;;;;;;;;;;;;6236011;23;19908;-83
2022/06/21 16:44:02;;;;;;;;;;;;;;;;;;6222769;23;20322;-86
2022/06/21 16:46:31;;;;;;;;;;;;;;;;;;6218615;23;19935;-85
2022/06/21 16:49:01;;;;;;;;;;;;;;;;;;6245674;23;20324;-88
2022/06/21 16:51:37;;;;;;;;;;;;;;;;;;6218858;23;20044;-86
2022/06/21 16:54:03;;;;;;;;;;;;;;;;;;6246548;23;20270;-86
2022/06/21 16:56:32;;;;;;;;;;;;;;;;;;6219830;23;19907;-88
2022/06/21 16:59:23;;;;;;;;;;;;;;;;;;6262372;22;19912;-85
2022/06/21 17:01:52;;;;;;;;;;;;;;;;;;6234181;23;19908;-85
2022/06/21 17:04:20;;;;;;;;;;;;;;;;;;6257502;23;19994;-85
2022/06/21 17:06:52;;;;;;;;;;;;;;;;;;6227852;23;19907;-84
2022/06/21 17:09:24;;;;;;;;;;;;;;;;;;6246283;23;20255;-85
2022/06/21 17:11:56;;;;;;;;;;;;;;;;;;6245131;23;20536;-85
2022/06/21 17:14:26;;;;;;;;;;;;;;;;;;6245555;23;19911;-87
2022/06/21 17:16:54;;;;;;;;;;;;;;;;;;6193454;23;19911;-86
2022/06/21 17:19:23;;;;;;;;;;;;;;;;;;6231863;23;19907;-86
2022/06/21 17:22:06;;;;;;;;;;;;;;;;;;6254952;23;19951;-87
2022/06/21 17:24:58;;;;;;;;;;;;;;;;;;6246895;23;19907;-85
2022/06/21 17:27:53;;;;;;;;;;;;;;;;;;6241105;23;19951;-86
2022/06/21 17:30:21;;;;;;;;;;;;;;;;;;6199557;23;19913;-86
2022/06/21 17:32:47;;;;;;;;;;;;;;;;;;6245992;23;19908;-84
2022/06/21 17:35:15;;;;;;;;;;;;;;;;;;6247145;23;19937;-86
2022/06/21 17:37:43;;;;;;;;;;;;;;;;;;6219585;23;20266;-86
2022/06/21 17:40:12;;;;;;;;;;;;;;;;;;6259243;23;19939;-84